createdAt,value
2018-09-19T00:00:19.853Z,84.80
2018-09-19T00:02:48.952Z,85.00
2018-09-19T00:05:18.026Z,85.00
2018-09-19T00:07:47.823Z,84.20
2018-09-19T00:10:17.774Z,83.70
2018-09-19T00:12:46.962Z,83.60
2018-09-19T00:15:16.068Z,84.20
2018-09-19T00:20:14.575Z,82.70
2018-09-19T00:22:44.816Z,83.80
2018-09-19T00:25:13.888Z,84.10
2018-09-19T00:27:43.705Z,83.70
2018-09-19T00:30:12.916Z,83.20
2018-09-19T00:32:42.053Z,83.00
2018-09-19T00:35:11.153Z,81.90
2018-09-19T00:37:40.205Z,80.90
2018-09-19T00:40:09.883Z,80.30
2018-09-19T00:42:38.956Z,80.50
2018-09-19T00:45:08.036Z,79.80
2018-09-19T00:47:37.177Z,79.30
2018-09-19T00:50:06.241Z,79.40
2018-09-19T00:52:35.524Z,79.00
2018-09-19T00:55:04.690Z,79.10
2018-09-19T00:57:33.733Z,80.20
2018-09-19T01:00:02.878Z,82.10
2018-09-19T01:02:31.944Z,83.20
2018-09-19T01:05:01.517Z,83.10
2018-09-19T01:07:30.734Z,82.30
2018-09-19T01:09:59.874Z,82.40
2018-09-19T01:12:28.919Z,84.20
2018-09-19T01:14:58.063Z,83.40
2018-09-19T01:17:27.105Z,84.70
2018-09-19T01:19:56.365Z,84.60
2018-09-19T01:22:26.002Z,83.90
2018-09-19T01:24:55.073Z,83.70
2018-09-19T01:27:24.117Z,84.00
2018-09-19T01:29:53.170Z,82.90
2018-09-19T01:32:22.200Z,83.10
2018-09-19T01:34:51.981Z,82.10
2018-09-19T01:37:21.104Z,83.20
2018-09-19T01:39:50.842Z,83.20
2018-09-19T01:42:20.510Z,83.50
2018-09-19T01:44:49.652Z,83.10
2018-09-19T01:47:18.679Z,84.50
2018-09-19T01:49:47.846Z,84.30
2018-09-19T01:52:17.818Z,83.20
2018-09-19T01:54:47.972Z,83.20
2018-09-19T01:57:17.140Z,84.10
2018-09-19T01:59:46.245Z,85.30
2018-09-19T02:02:16.530Z,83.90
2018-09-19T02:04:45.590Z,84.70
2018-09-19T02:07:14.608Z,84.20
2018-09-19T02:09:43.768Z,85.30
2018-09-19T02:12:12.853Z,84.50
2018-09-19T02:14:41.933Z,84.60
2018-09-19T02:17:11.095Z,84.70
2018-09-19T02:19:40.353Z,85.40
2018-09-19T02:22:09.473Z,85.10
2018-09-19T02:24:38.996Z,85.30
2018-09-19T02:27:08.058Z,85.30
2018-09-19T02:29:37.282Z,85.50
2018-09-19T02:32:06.745Z,85.30
2018-09-19T02:34:35.799Z,85.40
2018-09-19T02:37:05.179Z,87.20
2018-09-19T02:39:34.955Z,86.20
2018-09-19T02:42:04.176Z,85.50
2018-09-19T02:44:33.225Z,86.50
2018-09-19T02:47:03.631Z,85.50
2018-09-19T02:49:32.863Z,84.90
2018-09-19T02:52:01.936Z,84.40
2018-09-19T02:54:31.185Z,84.50
2018-09-19T02:57:00.233Z,85.00
2018-09-19T02:59:29.335Z,84.70
2018-09-19T03:01:59.587Z,84.70
2018-09-19T03:04:28.705Z,84.90
2018-09-19T03:06:57.944Z,85.50
2018-09-19T03:09:27.533Z,86.50
2018-09-19T03:11:56.764Z,86.80
2018-09-19T03:14:26.041Z,86.60
2018-09-19T03:16:55.080Z,87.10
2018-09-19T03:19:24.149Z,86.50
2018-09-19T03:21:53.209Z,86.60
2018-09-19T03:24:23.000Z,88.10
2018-09-19T03:26:52.037Z,87.80
2018-09-19T03:29:21.107Z,87.40
2018-09-19T03:31:50.184Z,87.30
2018-09-19T03:34:19.307Z,86.70
2018-09-19T03:36:48.388Z,86.70
2018-09-19T03:39:17.417Z,86.80
2018-09-19T03:41:46.601Z,87.00
2018-09-19T03:44:15.628Z,87.20
2018-09-19T03:46:44.676Z,88.50
2018-09-19T03:49:13.713Z,89.60
2018-09-19T03:51:42.800Z,90.10
2018-09-19T03:54:11.915Z,89.70
2018-09-19T03:56:41.057Z,89.30
2018-09-19T03:59:10.162Z,90.20
2018-09-19T04:01:39.981Z,89.50
2018-09-19T04:04:09.176Z,88.50
2018-09-19T04:06:38.460Z,88.20
2018-09-19T04:09:11.153Z,87.10
2018-09-19T04:11:40.454Z,87.40
2018-09-19T04:14:10.758Z,87.90
2018-09-19T04:16:40.419Z,88.80
2018-09-19T04:19:09.488Z,89.30
2018-09-19T04:21:44.420Z,88.30
2018-09-19T04:24:13.667Z,87.10
2018-09-19T04:26:43.392Z,87.10
2018-09-19T04:29:12.513Z,88.30
2018-09-19T04:31:42.106Z,88.00
2018-09-19T04:34:11.174Z,88.00
2018-09-19T04:36:40.377Z,87.60
2018-09-19T04:39:11.185Z,87.50
2018-09-19T04:41:40.229Z,87.60
2018-09-19T04:44:10.693Z,88.40
2018-09-19T04:46:40.540Z,89.50
2018-09-19T04:51:40.185Z,88.50
2018-09-19T04:54:10.218Z,90.60
2018-09-19T04:56:39.955Z,89.70
2018-09-19T04:59:08.983Z,88.40
2018-09-19T05:01:38.781Z,88.50
2018-09-19T05:04:07.979Z,88.50
2018-09-19T05:06:37.033Z,87.80
2018-09-19T05:09:08.178Z,87.50
2018-09-19T05:11:37.276Z,87.60
2018-09-19T05:14:07.266Z,87.50
2018-09-19T05:16:36.321Z,87.90
2018-09-19T05:19:05.405Z,89.20
2018-09-19T05:21:34.480Z,89.80
2018-09-19T05:24:03.554Z,88.80
2018-09-19T05:26:32.620Z,87.80
2018-09-19T05:29:02.147Z,87.00
2018-09-19T05:31:31.264Z,86.60
2018-09-19T05:34:00.259Z,86.70
2018-09-19T05:36:29.315Z,86.90
2018-09-19T05:38:58.525Z,87.40
2018-09-19T05:41:27.633Z,87.80
2018-09-19T05:43:56.822Z,86.20
2018-09-19T05:46:25.927Z,85.50
2018-09-19T05:48:54.950Z,84.90
2018-09-19T05:51:24.064Z,84.30
2018-09-19T05:53:53.254Z,83.90
2018-09-19T05:56:22.320Z,81.40
2018-09-19T05:58:51.380Z,78.20
2018-09-19T06:01:20.554Z,73.70
2018-09-19T06:03:50.217Z,70.00
2018-09-19T06:06:19.332Z,66.30
2018-09-19T06:08:48.407Z,64.90
2018-09-19T06:11:17.532Z,63.90
2018-09-19T06:13:47.394Z,61.00
2018-09-19T06:16:16.740Z,58.40
2018-09-19T06:18:45.815Z,54.90
2018-09-19T06:21:14.865Z,53.90
2018-09-19T06:23:43.959Z,56.50
2018-09-19T06:26:13.067Z,59.70
2018-09-19T06:28:42.735Z,62.30
2018-09-19T06:31:12.555Z,64.40
2018-09-19T06:33:41.805Z,63.90
2018-09-19T06:36:11.069Z,61.90
2018-09-19T06:38:40.940Z,57.60
2018-09-19T06:41:09.994Z,54.80
2018-09-19T06:43:39.085Z,50.90
2018-09-19T06:46:08.128Z,48.00
2018-09-19T06:48:37.282Z,45.00
2018-09-19T06:51:06.347Z,42.80
2018-09-19T06:53:35.464Z,42.80
2018-09-19T06:56:04.712Z,42.10
2018-09-19T06:58:33.923Z,40.90
2018-09-19T07:01:03.143Z,42.70
2018-09-19T07:03:32.376Z,42.80
2018-09-19T07:06:02.024Z,42.10
2018-09-19T07:08:31.558Z,41.60
2018-09-19T07:11:01.209Z,40.80
2018-09-19T07:13:30.367Z,40.10
2018-09-19T07:15:59.387Z,38.40
2018-09-19T07:18:28.582Z,38.00
2018-09-19T07:20:57.690Z,36.80
2018-09-19T07:23:26.792Z,36.70
2018-09-19T07:25:56.016Z,34.70
2018-09-19T07:28:25.261Z,34.50
2018-09-19T07:30:54.655Z,33.00
2018-09-19T07:33:24.365Z,34.20
2018-09-19T07:35:53.413Z,33.00
2018-09-19T07:38:22.606Z,33.00
2018-09-19T07:40:52.244Z,32.10
2018-09-19T07:43:21.448Z,30.90
2018-09-19T07:45:50.529Z,29.40
2018-09-19T07:48:20.183Z,30.30
2018-09-19T07:50:49.297Z,29.30
2018-09-19T07:53:18.348Z,28.20
2018-09-19T07:55:48.183Z,28.50
2018-09-19T07:58:17.375Z,29.60
2018-09-19T08:00:46.554Z,30.00
2018-09-19T08:03:15.644Z,30.20
2018-09-19T08:05:45.342Z,29.20
2018-09-19T08:08:14.447Z,28.90
2018-09-19T08:10:43.604Z,27.50
2018-09-19T08:13:13.373Z,26.30
2018-09-19T08:15:43.379Z,27.70
2018-09-19T08:18:12.835Z,28.50
2018-09-19T08:20:42.017Z,28.40
2018-09-19T08:23:11.617Z,28.90
2018-09-19T08:25:41.480Z,27.90
2018-09-19T08:28:11.765Z,27.40
2018-09-19T08:30:41.508Z,26.60
2018-09-19T08:33:10.716Z,25.70
2018-09-19T08:35:40.501Z,26.90
2018-09-19T08:38:09.615Z,27.10
2018-09-19T08:40:38.715Z,26.80
2018-09-19T08:43:07.777Z,25.50
2018-09-19T08:45:36.852Z,25.00
2018-09-19T08:48:06.133Z,23.40
2018-09-19T08:50:35.461Z,22.90
2018-09-19T08:53:04.484Z,22.00
2018-09-19T08:55:33.717Z,21.00
2018-09-19T08:58:02.957Z,20.80
2018-09-19T09:00:32.152Z,20.90
2018-09-19T09:03:01.439Z,19.60
2018-09-19T09:05:30.662Z,20.00
2018-09-19T09:08:00.281Z,19.60
2018-09-19T09:10:29.394Z,19.20
2018-09-19T09:12:58.620Z,19.30
2018-09-19T09:15:27.807Z,21.40
2018-09-19T09:17:56.991Z,19.90
2018-09-19T09:20:26.154Z,20.10
2018-09-19T09:22:55.204Z,20.00
2018-09-19T09:25:24.433Z,20.80
2018-09-19T09:27:53.541Z,19.80
2018-09-19T09:30:22.641Z,19.50
2018-09-19T09:32:51.745Z,20.40
2018-09-19T09:35:20.820Z,20.20
2018-09-19T09:37:49.865Z,20.90
2018-09-19T09:40:19.002Z,21.90
2018-09-19T09:42:48.112Z,23.50
2018-09-19T09:45:17.227Z,23.30
2018-09-19T09:47:46.440Z,23.50
2018-09-19T09:50:15.549Z,24.80
2018-09-19T09:52:44.770Z,25.90
2018-09-19T09:55:15.359Z,26.30
2018-09-19T09:57:44.513Z,25.80
2018-09-19T10:00:13.680Z,26.30
2018-09-19T10:02:42.794Z,25.80
2018-09-19T10:05:11.869Z,25.60
2018-09-19T10:07:40.877Z,27.00
2018-09-19T10:10:09.990Z,26.40
2018-09-19T10:12:39.151Z,27.80
2018-09-19T10:15:08.463Z,27.80
2018-09-19T10:17:37.694Z,26.50
2018-09-19T10:20:06.723Z,26.40
2018-09-19T10:22:35.758Z,24.60
2018-09-19T10:25:04.902Z,25.30
2018-09-19T10:27:34.091Z,24.80
2018-09-19T10:30:03.908Z,23.10
2018-09-19T10:32:33.177Z,22.30
2018-09-19T10:35:03.265Z,22.50
2018-09-19T10:37:32.516Z,22.50
2018-09-19T10:40:01.631Z,21.70
2018-09-19T10:42:30.689Z,20.70
2018-09-19T10:44:59.909Z,20.60
2018-09-19T10:47:29.599Z,20.20
2018-09-19T10:49:58.844Z,20.10
2018-09-19T10:52:28.008Z,21.30
2018-09-19T10:54:57.196Z,20.10
2018-09-19T10:57:26.235Z,19.00
2018-09-19T10:59:55.331Z,18.70
2018-09-19T11:02:24.492Z,18.30
2018-09-19T11:04:54.561Z,18.00
2018-09-19T11:07:23.762Z,18.60
2018-09-19T11:09:53.111Z,17.90
2018-09-19T11:12:22.319Z,17.60
2018-09-19T11:14:51.373Z,19.40
2018-09-19T11:17:21.154Z,19.90
2018-09-19T11:19:50.432Z,20.00
2018-09-19T11:22:19.586Z,19.60
2018-09-19T11:24:49.092Z,19.30
2018-09-19T11:27:18.340Z,19.90
2018-09-19T11:29:47.656Z,19.30
2018-09-19T11:32:16.688Z,19.10
2018-09-19T11:34:45.740Z,17.70
2018-09-19T11:37:14.845Z,18.30
2018-09-19T11:39:44.656Z,18.60
2018-09-19T11:42:14.722Z,20.00
2018-09-19T11:44:43.788Z,19.10
2018-09-19T11:47:12.953Z,19.70
2018-09-19T11:49:42.026Z,19.90
2018-09-19T11:52:11.180Z,20.40
2018-09-19T11:54:40.651Z,20.90
2018-09-19T11:57:09.979Z,20.00
2018-09-19T11:59:40.772Z,20.80
2018-09-19T12:02:10.028Z,20.30
2018-09-19T12:04:39.744Z,20.80
2018-09-19T12:07:08.909Z,20.10
2018-09-19T12:09:38.796Z,19.90
2018-09-19T12:12:08.170Z,19.00
2018-09-19T12:14:37.327Z,17.90
2018-09-19T12:17:06.398Z,18.10
2018-09-19T12:19:35.632Z,17.90
2018-09-19T12:22:04.857Z,17.70
2018-09-19T12:24:34.396Z,18.40
2018-09-19T12:27:03.480Z,18.70
2018-09-19T12:29:33.177Z,18.60
2018-09-19T12:32:02.541Z,18.20
2018-09-19T12:34:31.636Z,17.10
2018-09-19T12:37:00.729Z,16.80
2018-09-19T12:39:29.808Z,16.80
2018-09-19T12:41:59.029Z,16.20
2018-09-19T12:44:28.185Z,17.10
2018-09-19T12:46:57.269Z,16.10
2018-09-19T12:49:26.293Z,15.60
2018-09-19T12:51:55.406Z,15.90
2018-09-19T12:54:24.490Z,15.70
2018-09-19T12:56:53.678Z,15.50
2018-09-19T12:59:22.768Z,15.20
2018-09-19T13:01:52.062Z,15.40
2018-09-19T13:04:21.760Z,14.60
2018-09-19T13:06:51.340Z,14.50
2018-09-19T13:09:20.366Z,14.60
2018-09-19T13:11:49.481Z,14.90
2018-09-19T13:14:18.619Z,15.00
2018-09-19T13:16:49.178Z,14.90
2018-09-19T13:19:18.256Z,15.00
2018-09-19T13:21:47.748Z,15.90
2018-09-19T13:24:16.769Z,15.70
2018-09-19T13:26:46.636Z,16.10
2018-09-19T13:29:16.245Z,16.20
2018-09-19T13:31:45.294Z,15.50
2018-09-19T13:34:14.356Z,15.20
2018-09-19T13:36:43.796Z,15.20
2018-09-19T13:39:13.568Z,15.30
2018-09-19T13:41:42.846Z,15.20
2018-09-19T13:44:12.174Z,14.60
2018-09-19T13:46:41.300Z,14.60
2018-09-19T13:49:32.064Z,14.40
2018-09-19T13:52:01.717Z,14.50
2018-09-19T13:54:30.816Z,15.50
2018-09-19T13:56:59.980Z,16.30
2018-09-19T13:59:29.254Z,16.80
2018-09-19T14:01:58.371Z,16.90
2018-09-19T14:04:27.482Z,16.10
2018-09-19T14:06:56.704Z,15.90
2018-09-19T14:09:26.315Z,15.50
2018-09-19T14:11:55.471Z,16.80
2018-09-19T14:14:24.619Z,16.10
2018-09-19T14:16:53.837Z,16.00
2018-09-19T14:19:22.896Z,16.40
2018-09-19T14:21:52.331Z,17.10
2018-09-19T14:24:21.593Z,18.30
2018-09-19T14:26:51.287Z,19.40
2018-09-19T14:29:20.474Z,20.00
2018-09-19T14:31:50.249Z,20.00
2018-09-19T14:34:20.049Z,20.40
2018-09-19T14:36:49.677Z,20.00
2018-09-19T14:39:18.810Z,20.80
2018-09-19T14:41:48.176Z,18.90
2018-09-19T14:44:17.216Z,18.10
2018-09-19T14:46:46.380Z,17.90
2018-09-19T14:49:16.130Z,17.20
2018-09-19T14:51:45.212Z,16.70
2018-09-19T14:54:14.446Z,16.70
2018-09-19T14:56:43.678Z,16.50
2018-09-19T14:59:12.796Z,16.00
2018-09-19T15:01:42.598Z,16.80
2018-09-19T15:04:11.669Z,16.40
2018-09-19T15:06:40.782Z,15.90
2018-09-19T15:09:10.784Z,15.80
2018-09-19T15:11:39.903Z,15.50
2018-09-19T15:14:09.581Z,16.00
2018-09-19T15:16:38.623Z,16.60
2018-09-19T15:19:08.290Z,16.70
2018-09-19T15:21:37.573Z,17.10
2018-09-19T15:24:06.776Z,17.60
2018-09-19T15:26:35.927Z,16.30
2018-09-19T15:29:05.084Z,17.00
2018-09-19T15:31:34.360Z,16.70
2018-09-19T15:34:03.526Z,17.70
2018-09-19T15:36:32.688Z,18.00
2018-09-19T15:39:01.815Z,17.80
2018-09-19T15:41:30.901Z,18.20
2018-09-19T15:43:59.979Z,18.60
2018-09-19T15:46:29.625Z,19.00
2018-09-19T15:48:59.009Z,19.40
2018-09-19T15:51:28.728Z,19.30
2018-09-19T15:53:57.871Z,19.70
2018-09-19T15:56:27.578Z,19.60
2018-09-19T15:58:56.650Z,19.50
2018-09-19T16:01:25.984Z,19.20
2018-09-19T16:03:55.096Z,19.70
2018-09-19T16:06:24.160Z,20.00
2018-09-19T16:08:53.223Z,20.10
2018-09-19T16:11:22.336Z,20.00
2018-09-19T16:13:51.491Z,20.50
2018-09-19T16:16:20.616Z,20.80
2018-09-19T16:18:49.733Z,20.60
2018-09-19T16:21:19.424Z,21.30
2018-09-19T16:23:48.489Z,21.40
2018-09-19T16:26:18.410Z,21.60
2018-09-19T16:28:47.523Z,22.10
2018-09-19T16:31:16.841Z,22.30
2018-09-19T16:33:45.947Z,23.00
2018-09-19T16:36:15.054Z,23.60
2018-09-19T16:38:44.192Z,25.00
2018-09-19T16:41:13.422Z,24.90
2018-09-19T16:43:42.508Z,24.80
2018-09-19T16:46:11.727Z,25.90
2018-09-19T16:48:41.005Z,26.10
2018-09-19T16:51:10.063Z,26.80
2018-09-19T16:53:39.425Z,28.40
2018-09-19T16:56:08.435Z,29.90
2018-09-19T16:58:37.554Z,31.50
2018-09-19T17:01:07.265Z,33.10
2018-09-19T17:03:36.396Z,33.30
2018-09-19T17:06:05.484Z,33.90
2018-09-19T17:08:34.852Z,34.50
2018-09-19T17:11:03.948Z,34.70
2018-09-19T17:13:33.808Z,35.40
2018-09-19T17:16:02.974Z,36.00
2018-09-19T17:18:32.712Z,37.40
2018-09-19T17:21:01.804Z,37.90
2018-09-19T17:23:31.717Z,38.90
2018-09-19T17:26:00.809Z,39.30
2018-09-19T17:28:30.329Z,40.80
2018-09-19T17:30:59.515Z,39.80
2018-09-19T17:33:28.626Z,40.00
2018-09-19T17:35:57.870Z,40.50
2018-09-19T17:38:27.224Z,40.80
2018-09-19T17:40:56.325Z,41.90
2018-09-19T17:43:25.393Z,42.10
2018-09-19T17:45:54.664Z,42.00
2018-09-19T17:48:23.864Z,43.00
2018-09-19T17:50:53.219Z,43.20
2018-09-19T17:53:22.365Z,43.50
2018-09-19T17:55:52.243Z,44.20
2018-09-19T17:58:21.978Z,44.20
2018-09-19T18:00:51.307Z,44.60
2018-09-19T18:03:20.865Z,45.10
2018-09-19T18:05:49.973Z,45.70
2018-09-19T18:08:19.046Z,45.80
2018-09-19T18:10:48.841Z,45.90
2018-09-19T18:13:17.863Z,46.10
2018-09-19T18:15:47.053Z,45.80
2018-09-19T18:18:16.115Z,46.00
2018-09-19T18:20:45.288Z,45.90
2018-09-19T18:23:14.413Z,47.10
2018-09-19T18:25:43.636Z,47.80
2018-09-19T18:29:42.270Z,47.50
2018-09-19T18:32:11.293Z,47.30
2018-09-19T18:34:41.414Z,48.60
2018-09-19T18:37:13.784Z,49.40
2018-09-19T18:39:42.868Z,49.10
2018-09-19T18:42:11.925Z,49.10
2018-09-19T18:44:41.038Z,49.70
2018-09-19T18:47:10.118Z,49.60
2018-09-19T18:49:39.389Z,50.20
2018-09-19T18:52:08.583Z,51.20
2018-09-19T18:54:38.422Z,50.80
2018-09-19T18:57:08.084Z,51.70
2018-09-19T18:59:37.245Z,52.50
2018-09-19T19:02:06.322Z,52.80
2018-09-19T19:04:35.514Z,53.00
2018-09-19T19:07:04.604Z,53.50
2018-09-19T19:09:33.810Z,53.60
2018-09-19T19:12:03.681Z,54.20
2018-09-19T19:14:32.853Z,54.20
2018-09-19T19:17:02.596Z,54.40
2018-09-19T19:19:31.671Z,53.80
2018-09-19T19:22:00.728Z,54.10
2018-09-19T19:24:29.810Z,55.10
2018-09-19T19:26:58.913Z,55.30
2018-09-19T19:29:28.045Z,55.70
2018-09-19T19:31:57.133Z,56.10
2018-09-19T19:34:26.380Z,55.90
2018-09-19T19:36:55.583Z,56.00
2018-09-19T19:39:25.394Z,57.10
2018-09-19T19:41:55.249Z,56.80
2018-09-19T19:44:24.569Z,57.10
2018-09-19T19:46:53.796Z,57.30
2018-09-19T19:49:23.317Z,57.10
2018-09-19T19:51:52.444Z,57.60
2018-09-19T19:54:21.629Z,59.10
2018-09-19T19:56:50.791Z,60.00
2018-09-19T19:59:20.028Z,60.30
2018-09-19T20:01:49.943Z,60.30
2018-09-19T20:04:19.875Z,60.30
2018-09-19T20:06:49.664Z,59.70
2018-09-19T20:09:19.484Z,60.10
2018-09-19T20:11:48.563Z,60.30
2018-09-19T20:14:18.318Z,60.90
2018-09-19T20:16:48.025Z,59.90
2018-09-19T20:19:17.774Z,60.50
2018-09-19T20:21:47.185Z,60.00
2018-09-19T20:24:16.253Z,60.00
2018-09-19T20:26:45.436Z,59.60
2018-09-19T20:29:15.359Z,59.50
2018-09-19T20:31:44.610Z,59.60
2018-09-19T20:34:13.800Z,61.50
2018-09-19T20:36:42.921Z,63.60
2018-09-19T20:39:12.436Z,63.80
2018-09-19T20:41:42.321Z,64.70
2018-09-19T20:44:12.699Z,65.70
2018-09-19T20:46:41.791Z,66.50
2018-09-19T20:49:10.957Z,66.70
2018-09-19T20:51:40.025Z,65.80
2018-09-19T20:54:09.185Z,65.50
2018-09-19T20:56:38.367Z,66.20
2018-09-19T20:59:07.542Z,66.50
2018-09-19T21:01:36.650Z,66.50
2018-09-19T21:04:05.751Z,66.40
2018-09-19T21:06:35.575Z,65.60
2018-09-19T21:09:05.701Z,66.30
2018-09-19T21:11:35.132Z,64.30
2018-09-19T21:14:04.188Z,65.50
2018-09-19T21:16:33.269Z,65.70
2018-09-19T21:19:02.378Z,65.20
2018-09-19T21:21:32.227Z,64.50
2018-09-19T21:24:01.412Z,65.10
2018-09-19T21:26:30.678Z,65.00
2018-09-19T21:28:59.732Z,66.00
2018-09-19T21:31:28.789Z,67.50
2018-09-19T21:33:57.955Z,68.50
2018-09-19T21:36:27.740Z,69.20
2018-09-19T21:38:57.636Z,69.80
2018-09-19T21:41:26.868Z,70.90
2018-09-19T21:43:55.944Z,71.60
2018-09-19T21:46:24.991Z,72.20
2018-09-19T21:48:54.166Z,71.90
2018-09-19T21:51:24.463Z,71.00
2018-09-19T21:53:53.542Z,71.00
2018-09-19T21:56:22.644Z,70.00
2018-09-19T21:58:51.773Z,70.10
2018-09-19T22:01:26.985Z,70.20
2018-09-19T22:03:56.077Z,70.30
2018-09-19T22:06:25.139Z,70.80
2018-09-19T22:08:54.892Z,70.00
2018-09-19T22:11:23.938Z,70.80
2018-09-19T22:13:54.392Z,70.60
2018-09-19T22:16:23.408Z,71.00
2018-09-19T22:18:52.509Z,70.80
2018-09-19T22:21:21.569Z,70.50
2018-09-19T22:23:50.642Z,70.50
2018-09-19T22:26:19.805Z,70.10
2018-09-19T22:28:49.108Z,69.30
2018-09-19T22:31:18.135Z,70.10
2018-09-19T22:33:47.348Z,73.20
2018-09-19T22:36:16.396Z,71.90
2018-09-19T22:38:45.468Z,72.40
2018-09-19T22:41:14.574Z,74.10
2018-09-19T22:43:43.734Z,73.90
2018-09-19T22:46:12.817Z,75.60
2018-09-19T22:48:42.056Z,75.50
2018-09-19T22:51:11.194Z,74.90
2018-09-19T22:53:40.326Z,73.80
2018-09-19T22:56:10.106Z,74.20
2018-09-19T22:58:39.188Z,74.10
2018-09-19T23:01:08.299Z,74.20
2018-09-19T23:03:37.962Z,74.70
2018-09-19T23:06:07.317Z,74.10
2018-09-19T23:08:36.376Z,74.00
2018-09-19T23:11:05.430Z,74.90
2018-09-19T23:13:34.530Z,76.60
2018-09-19T23:16:03.716Z,77.80
2018-09-19T23:18:32.796Z,77.50
2018-09-19T23:21:02.018Z,77.50
2018-09-19T23:23:31.079Z,78.80
2018-09-19T23:26:00.358Z,79.20
2018-09-19T23:28:29.425Z,79.50
2018-09-19T23:30:59.073Z,79.30
2018-09-19T23:33:28.958Z,78.90
2018-09-19T23:35:58.013Z,78.60
2018-09-19T23:38:27.281Z,79.00
2018-09-19T23:40:56.387Z,79.10
2018-09-19T23:43:25.665Z,77.90
2018-09-19T23:45:54.713Z,77.20
2018-09-19T23:48:24.184Z,76.90
2018-09-19T23:50:53.201Z,76.50
2018-09-19T23:53:22.398Z,77.40
2018-09-19T23:55:51.493Z,77.40
2018-09-19T23:58:20.554Z,78.10
